Terminal Aerodrome Forecast
Issued by NWS

Home | Current Version | Previous Version | Graphics & Text | Print | Product List | Glossary On
Versions: 1 2 3 4 5 6 7 8 9 10 11 12 13 14 15 16 17 18 19 20 21 22 23 24
000
FTUS43 KGRB 210259 AAA
TAFAUW
TAF AMD
KAUW 210259Z 2103/2124 26003KT P6SM SCT035 BKN070
      TEMPO 2103/2105 5SM -TSRA BKN035CB
     FM211000 VRB03KT 4SM BR SCT050 BKN150
      TEMPO 2110/2113 2SM BR
     FM211300 14003KT P6SM SCT040 BKN090
     FM211800 20005KT P6SM SCT040 BKN090 PROB30 2118/2124 3SM -TSRA
      BKN040CB=

USA.gov is the U.S. government's official web portal to all federal, state and local government web resources and services.